Big Brook, Canada
Current Conditions -  °F | °C
As of 3:00 AM on Monday 22 Dec 2014 (Local Time) from CYAY Reporting Station
Clear Clear  
Wind Chill: -11°   Ceiling: Unl
Heat Index: -11°   Visibility: 9mi
Dew Point: -13°   Wind: 3mph
Humidity: 85%   Direction: 10°N
Pressure: 30.37"   Gusts: NA
Location:  51.51°N, 56.14°W
Report Text: CYAY 220600Z AUTO 01003KT 9SM CLR M11/M13 A3037 RMK SLP288
Loading
Personal Weather Stations






























Interactive Weather Map New forecast layout! Learn more

10-Day Weather Forecast

Advertisements
Track Severe Weather on mobile